Terminal Aerodrome Forecast
Issued by NWS Wilmington, NC

Home | Current Version | Previous Version | Text Only | Print | Product List | Glossary On
Versions: 1 2 3 4 5 6 7 8 9 10 11 12 13 14 15 16
000
FTUS42 KILM 031740
TAFLBT
TAF
KLBT 031740Z 0318/0418 29005KT P6SM SCT040 SCT080
     FM040200 VRB03KT P6SM VCTS SCT050CB BKN080
     FM040900 VRB03KT 3SM BR VCSH SCT005 SCT080
      TEMPO 0410/0414 3SM BR BKN005
     FM041400 VRB05KT P6SM SCT010 BKN080=

USA.gov is the U.S. government's official web portal to all federal, state and local government web resources and services.